Time;durP1;ratioP1;P1;durP2;ratioP2;P2;SDS_P1;SDS_P2;PMS_P1;PMS_P2;Temp;Humidity;BMP_temperature;BMP_pressure;BME280_temperature;BME280_humidity;BME280_pressure;Samples;Min_cycle;Max_cycle;Signal;HPM_P1;HPM_P2
2022/11/02 00:01:11;;;;;;;;;;;3.50;93.00;;;;;;5012466;28;20022;-81
2022/11/02 00:03:36;;;;;;;11.48;5.50;;;3.50;92.80;;;;;;5013668;28;19964;-81
2022/11/02 00:06:02;;;;;;;12.77;5.22;;;3.40;92.80;;;;;;5015555;28;20115;-82
2022/11/02 00:08:28;;;;;;;12.80;5.18;;;3.50;92.90;;;;;;5010549;28;20446;-81
2022/11/02 00:10:54;;;;;;;8.57;3.97;;;3.50;93.00;;;;;;5007781;28;20030;-83
2022/11/02 00:13:20;;;;;;;10.68;4.40;;;3.50;92.90;;;;;;5002470;28;20022;-82
2022/11/02 00:15:46;;;;;;;10.07;3.83;;;3.50;92.80;;;;;;5006286;28;20030;-81
2022/11/02 00:18:13;;;;;;;11.30;4.25;;;3.60;92.80;;;;;;5006821;28;20046;-81
2022/11/02 00:20:41;;;;;;;10.10;4.78;;;3.60;92.70;;;;;;5008180;28;20054;-82
2022/11/02 00:23:09;;;;;;;7.07;4.30;;;3.60;92.70;;;;;;5006511;28;20030;-79
2022/11/02 00:25:40;;;;;;;11.38;4.75;;;3.60;92.70;;;;;;4999990;28;20026;-81
2022/11/02 00:28:06;;;;;;;10.07;4.28;;;3.50;92.60;;;;;;5002742;28;20524;-79
2022/11/02 00:30:32;;;;;;;9.52;3.80;;;3.50;92.70;;;;;;5000383;28;20418;-83
2022/11/02 00:32:58;;;;;;;7.38;4.15;;;3.60;92.70;;;;;;5006463;28;20161;-82
2022/11/02 00:35:24;;;;;;;8.90;3.90;;;3.50;92.70;;;;;;4999274;28;20029;-82
2022/11/02 00:37:50;;;;;;;5.30;4.07;;;3.60;92.70;;;;;;5005026;28;20467;-82
2022/11/02 00:40:16;;;;;;;6.80;3.25;;;3.60;92.70;;;;;;5014811;28;20566;-83
2022/11/02 00:42:41;;;;;;;9.60;5.07;;;3.60;92.60;;;;;;4999096;28;20018;-82
2022/11/02 00:45:08;;;;;;;10.13;4.18;;;3.70;92.60;;;;;;5000842;28;20081;-83
2022/11/02 00:47:33;;;;;;;6.32;4.13;;;3.70;92.60;;;;;;5001482;28;20069;-83
2022/11/02 00:49:59;;;;;;;7.43;4.40;;;3.70;92.60;;;;;;5007802;28;20058;-81
2022/11/02 00:52:25;;;;;;;6.90;4.45;;;3.70;92.50;;;;;;5017010;28;20028;-84
2022/11/02 00:54:51;;;;;;;12.95;4.70;;;3.70;92.60;;;;;;5015247;28;20084;-82
2022/11/02 00:57:17;;;;;;;8.10;4.78;;;3.70;92.50;;;;;;5001750;28;20026;-81
2022/11/02 00:59:43;;;;;;;6.18;4.88;;;3.70;92.50;;;;;;5023125;28;20033;-82
2022/11/02 01:02:08;;;;;;;7.20;4.72;;;3.80;92.40;;;;;;5016432;28;20022;-83
2022/11/02 01:04:37;;;;;;;8.50;4.13;;;3.70;92.50;;;;;;5004340;28;20108;-81
2022/11/02 01:07:03;;;;;;;7.57;4.75;;;3.80;92.40;;;;;;5015672;28;20022;-81
2022/11/02 01:09:29;;;;;;;9.05;4.80;;;3.80;92.50;;;;;;5025365;28;20033;-84
2022/11/02 01:11:55;;;;;;;8.20;4.93;;;3.80;92.50;;;;;;5020985;28;20025;-84
2022/11/02 01:14:21;;;;;;;8.15;4.00;;;3.80;92.40;;;;;;5011817;28;20044;-82
2022/11/02 01:16:47;;;;;;;8.05;5.00;;;3.80;92.50;;;;;;5005683;28;20097;-81
2022/11/02 01:19:13;;;;;;;9.60;4.40;;;3.80;92.50;;;;;;5010486;28;20028;-83
2022/11/02 01:21:39;;;;;;;10.73;5.10;;;3.80;92.40;;;;;;5011478;28;20029;-83
2022/11/02 01:24:05;;;;;;;6.35;3.70;;;3.80;92.30;;;;;;5005369;28;20081;-83
2022/11/02 01:26:31;;;;;;;12.13;4.75;;;3.80;92.30;;;;;;5011928;28;20417;-82
2022/11/02 01:28:57;;;;;;;7.43;4.20;;;3.80;92.30;;;;;;5002330;28;20096;-82
2022/11/02 01:31:26;;;;;;;7.80;4.78;;;3.80;92.10;;;;;;5003995;28;20066;-82
2022/11/02 01:33:55;;;;;;;8.13;4.32;;;3.80;92.10;;;;;;4993853;28;20112;-82
2022/11/02 01:36:20;;;;;;;7.63;3.65;;;3.70;92.00;;;;;;5008971;28;20022;-82
2022/11/02 01:38:48;;;;;;;8.10;5.05;;;3.70;92.20;;;;;;5017503;28;20039;-82
2022/11/02 01:41:14;;;;;;;5.47;4.20;;;3.70;92.20;;;;;;5013078;28;20045;-82
2022/11/02 01:43:45;;;;;;;6.88;4.45;;;3.70;92.20;;;;;;5022708;28;20077;-79
2022/11/02 01:46:10;;;;;;;5.75;4.00;;;3.70;92.30;;;;;;5007856;28;20025;-80
2022/11/02 01:48:46;;;;;;;10.18;4.43;;;3.70;92.40;;;;;;4997571;28;20031;-80
2022/11/02 01:51:27;;;;;;;8.25;4.55;;;3.70;92.40;;;;;;5006200;28;20381;-80
2022/11/02 01:53:56;;;;;;;7.43;4.18;;;3.70;92.60;;;;;;4999586;28;20415;-80
2022/11/02 01:56:24;;;;;;;9.48;4.10;;;3.70;92.70;;;;;;5013957;28;20064;-80
2022/11/02 01:58:55;;;;;;;9.23;5.47;;;3.70;92.70;;;;;;5010402;28;20029;-81
2022/11/02 02:01:22;;;;;;;7.15;4.80;;;3.70;92.70;;;;;;5002290;28;20034;-81
2022/11/02 02:03:50;;;;;;;10.40;4.35;;;3.70;92.80;;;;;;5007838;28;20152;-80
2022/11/02 02:06:16;;;;;;;;;;;3.70;92.80;;;;;;4995250;28;20038;-80
2022/11/02 02:08:46;;;;;;;7.73;5.30;;;3.70;92.80;;;;;;4994523;28;19952;-81
2022/11/02 02:11:23;;;;;;;7.28;4.18;;;3.70;92.80;;;;;;4994802;28;20173;-83
2022/11/02 02:13:50;;;;;;;;;;;3.70;92.80;;;;;;4994887;28;20383;-83
2022/11/02 02:16:26;;;;;;;9.33;4.20;;;3.70;92.70;;;;;;5007117;28;20491;-83
2022/11/02 02:19:00;;;;;;;8.10;4.57;;;3.70;92.70;;;;;;4994924;28;20616;-82
2022/11/02 02:21:47;;;;;;;11.30;5.53;;;3.70;92.60;;;;;;4994454;28;20439;-82
2022/11/02 02:24:24;;;;;;;12.15;5.18;;;3.70;92.70;;;;;;4995835;28;20042;-81
2022/11/02 02:26:50;;;;;;;7.10;5.13;;;3.70;92.60;;;;;;4996885;28;20029;-83
2022/11/02 02:29:44;;;;;;;7.07;4.68;;;3.70;92.60;;;;;;4997134;28;20496;-82
2022/11/02 02:32:34;;;;;;;11.07;5.70;;;3.70;92.70;;;;;;5015264;28;20027;-81
2022/11/02 02:35:30;;;;;;;6.97;4.60;;;3.70;92.70;;;;;;5002572;28;20563;-82
2022/11/02 02:38:07;;;;;;;6.13;4.80;;;3.70;92.60;;;;;;4997603;28;20053;-82
2022/11/02 02:40:38;;;;;;;9.07;5.70;;;3.70;92.70;;;;;;5006909;28;20363;-81
2022/11/02 02:43:03;;;;;;;8.65;5.13;;;3.70;92.60;;;;;;5002605;28;20037;-82
2022/11/02 02:45:43;;;;;;;7.55;5.13;;;3.70;92.70;;;;;;4999905;28;20034;-81
2022/11/02 02:48:15;;;;;;;12.43;5.00;;;3.70;92.80;;;;;;5013777;28;20034;-81
2022/11/02 02:50:52;;;;;;;7.40;5.63;;;3.70;92.90;;;;;;5008408;28;20042;-81
2022/11/02 02:53:22;;;;;;;12.35;5.55;;;3.70;92.90;;;;;;5014076;28;20038;-82
2022/11/02 02:55:49;;;;;;;11.60;6.18;;;3.70;92.90;;;;;;5001416;28;20498;-81
2022/11/02 02:58:25;;;;;;;6.72;4.90;;;3.70;93.00;;;;;;5001939;28;20526;-82
2022/11/02 03:01:00;;;;;;;7.50;5.38;;;3.80;93.00;;;;;;5001896;28;20531;-82
2022/11/02 03:03:28;;;;;;;13.20;4.72;;;3.80;93.00;;;;;;5001902;28;20086;-80
2022/11/02 03:06:12;;;;;;;11.40;5.32;;;3.80;92.90;;;;;;5008248;28;20034;-82
2022/11/02 03:08:40;;;;;;;12.65;4.80;;;3.80;92.90;;;;;;5005624;28;20093;-82
2022/11/02 03:11:17;;;;;;;7.85;5.40;;;3.80;92.90;;;;;;5007492;28;20057;-83
2022/11/02 03:14:32;;;;;;;9.45;5.18;;;3.80;92.80;;;;;;5005641;28;20380;-82
2022/11/02 03:17:09;;;;;;;10.57;5.57;;;3.70;92.60;;;;;;4998595;28;20096;-81
2022/11/02 03:19:59;;;;;;;11.95;5.63;;;3.70;92.60;;;;;;5012966;28;20487;-81
2022/11/02 03:22:52;;;;;;;8.57;5.25;;;3.80;92.70;;;;;;5009163;28;20048;-83
2022/11/02 03:25:35;;;;;;;9.50;4.50;;;3.80;92.60;;;;;;5022817;28;20168;-81
2022/11/02 03:28:16;;;;;;;10.55;4.95;;;3.80;92.60;;;;;;5021464;28;20021;-81
2022/11/02 03:30:49;;;;;;;8.85;4.93;;;3.80;92.60;;;;;;5010334;28;20018;-80
2022/11/02 03:33:44;;;;;;;7.80;4.78;;;3.80;92.60;;;;;;5006625;28;20021;-80
2022/11/02 03:36:21;;;;;;;12.30;5.10;;;3.80;92.40;;;;;;5007640;28;20023;-80
2022/11/02 03:39:02;;;;;;;13.82;5.57;;;3.80;92.30;;;;;;5008267;28;20053;-79
2022/11/02 03:41:28;;;;;;;6.63;5.13;;;3.70;92.40;;;;;;5001896;28;20510;-80
2022/11/02 03:44:01;;;;;;;11.52;5.53;;;3.50;92.90;;;;;;5005355;28;20030;-80
2022/11/02 03:46:31;;;;;;;8.13;5.10;;;3.50;93.00;;;;;;5006131;28;20072;-81
2022/11/02 03:48:59;;;;;;;12.15;5.45;;;3.40;93.20;;;;;;5005265;28;20400;-82
2022/11/02 03:51:28;;;;;;;12.45;5.15;;;3.30;93.40;;;;;;5000086;28;20018;-81
2022/11/02 03:54:18;;;;;;;8.18;5.93;;;3.30;93.70;;;;;;5007016;28;20076;-81
2022/11/02 03:56:48;;;;;;;10.32;6.10;;;3.20;94.10;;;;;;5009727;28;20045;-80
2022/11/02 03:59:14;;;;;;;8.35;5.68;;;3.20;94.30;;;;;;5006200;28;20121;-82
2022/11/02 04:01:43;;;;;;;10.95;5.45;;;3.20;94.60;;;;;;5019312;28;20538;-83
2022/11/02 04:04:10;;;;;;;10.40;6.50;;;3.20;94.80;;;;;;5013851;28;20061;-82
2022/11/02 04:06:36;;;;;;;8.70;5.97;;;3.20;94.90;;;;;;5014851;28;20040;-80
2022/11/02 04:09:06;;;;;;;9.00;5.63;;;3.10;95.00;;;;;;5005808;28;20026;-81
2022/11/02 04:19:45;;;;;;;11.50;6.93;;;3.00;95.70;;;;;;5000354;28;20041;-82
2022/11/02 04:27:40;;;;;;;11.63;7.43;;;3.10;96.10;;;;;;5000353;28;20041;-83
2022/11/02 04:30:06;;;;;;;11.55;7.53;;;3.10;96.10;;;;;;5004084;28;20033;-81
2022/11/02 04:35:27;;;;;;;15.63;6.88;;;3.10;96.40;;;;;;4996809;28;20167;-80
2022/11/02 04:40:37;;;;;;;9.50;6.63;;;3.20;96.40;;;;;;5002546;28;20163;-81
2022/11/02 04:43:03;;;;;;;9.63;4.90;;;3.20;96.40;;;;;;5004206;28;20493;-84
2022/11/02 04:45:29;;;;;;;10.57;5.88;;;3.20;96.30;;;;;;5005298;28;20029;-83
2022/11/02 04:48:02;;;;;;;8.13;4.15;;;3.10;96.10;;;;;;5005561;28;20022;-83
2022/11/02 04:50:29;;;;;;;10.35;4.18;;;3.10;95.90;;;;;;5006650;28;20081;-81
2022/11/02 04:52:59;;;;;;;5.72;4.53;;;3.10;95.80;;;;;;5012006;28;20547;-83
2022/11/02 04:55:26;;;;;;;11.63;4.70;;;3.10;95.60;;;;;;5014133;28;20065;-83
2022/11/02 04:57:52;;;;;;;8.20;4.37;;;3.20;95.50;;;;;;5008985;28;20018;-83
2022/11/02 05:00:19;;;;;;;13.38;6.47;;;3.20;95.40;;;;;;5015172;28;20116;-84
2022/11/02 05:02:49;;;;;;;9.20;5.57;;;3.20;95.30;;;;;;5021210;28;20034;-82
2022/11/02 05:05:16;;;;;;;7.45;5.78;;;3.20;95.10;;;;;;5010770;28;20657;-82
2022/11/02 05:07:43;;;;;;;10.13;6.05;;;3.30;95.20;;;;;;5017319;28;20086;-80
2022/11/02 05:10:09;;;;;;;9.63;5.60;;;3.30;95.20;;;;;;5006661;28;20026;-82
2022/11/02 05:12:35;;;;;;;11.13;6.07;;;3.30;95.00;;;;;;5009739;28;20030;-82
2022/11/02 05:15:03;;;;;;;11.77;5.10;;;3.40;95.10;;;;;;4996642;28;20057;-81
2022/11/02 05:17:28;;;;;;;6.97;5.35;;;3.40;95.00;;;;;;5009756;28;20135;-81
2022/11/02 05:19:54;;;;;;;8.23;5.13;;;3.50;94.90;;;;;;4999013;28;20121;-81
2022/11/02 05:22:20;;;;;;;7.90;5.70;;;3.40;94.60;;;;;;4999006;28;20026;-85
2022/11/02 05:24:46;;;;;;;15.13;6.25;;;3.50;94.50;;;;;;5010840;28;20479;-83
2022/11/02 05:27:12;;;;;;;10.30;6.13;;;3.50;94.50;;;;;;5023634;28;20040;-84
2022/11/02 05:29:38;;;;;;;10.45;5.65;;;3.50;94.30;;;;;;5019391;28;20037;-85
2022/11/02 05:32:05;;;;;;;10.57;6.22;;;3.50;94.40;;;;;;5030713;28;20030;-84
2022/11/02 05:34:30;;;;;;;14.98;5.35;;;3.60;94.50;;;;;;5019035;28;20395;-84
2022/11/02 05:36:56;;;;;;;11.05;6.10;;;3.60;94.30;;;;;;5012384;28;20022;-83
2022/11/02 05:39:22;;;;;;;12.70;6.03;;;3.60;94.10;;;;;;5013179;28;20510;-86
2022/11/02 05:41:48;;;;;;;11.77;5.45;;;3.70;94.10;;;;;;5012545;28;20069;-81
2022/11/02 05:44:14;;;;;;;11.63;5.07;;;3.80;94.10;;;;;;5014983;28;20026;-82
2022/11/02 05:46:42;;;;;;;18.88;6.55;;;3.80;94.00;;;;;;5015880;28;20029;-82
2022/11/02 05:49:08;;;;;;;17.75;5.28;;;3.80;94.00;;;;;;5016456;28;20034;-80
2022/11/02 05:51:34;;;;;;;8.77;5.32;;;3.70;94.10;;;;;;5001880;28;20041;-81
2022/11/02 05:53:59;;;;;;;16.23;7.18;;;3.70;94.00;;;;;;5025634;28;20040;-82
2022/11/02 05:56:25;;;;;;;9.32;4.82;;;3.60;94.00;;;;;;5004971;28;20518;-82
2022/11/02 05:58:53;;;;;;;12.32;4.95;;;3.60;94.10;;;;;;5006763;28;20149;-81
2022/11/02 06:01:20;;;;;;;9.77;5.57;;;3.60;94.20;;;;;;4995368;28;20542;-80
2022/11/02 06:03:45;;;;;;;11.88;5.97;;;3.70;94.20;;;;;;5009142;28;20116;-83
2022/11/02 06:06:11;;;;;;;11.88;6.15;;;3.80;94.20;;;;;;5003712;28;20057;-83
2022/11/02 06:08:38;;;;;;;7.80;4.97;;;3.90;93.90;;;;;;5007248;28;20097;-84
2022/11/02 06:11:09;;;;;;;10.43;5.65;;;3.90;93.90;;;;;;5013099;28;20034;-80
2022/11/02 06:13:35;;;;;;;6.70;4.63;;;3.90;93.60;;;;;;4995437;28;20065;-81
2022/11/02 06:16:02;;;;;;;8.45;4.75;;;3.80;93.80;;;;;;4995990;28;20066;-81
2022/11/02 06:18:30;;;;;;;12.15;4.90;;;3.70;93.90;;;;;;4997437;28;20021;-83
2022/11/02 06:20:57;;;;;;;13.00;6.35;;;3.70;93.90;;;;;;4996637;28;20376;-82
2022/11/02 06:23:27;;;;;;;12.55;7.05;;;3.70;93.90;;;;;;5008877;28;20049;-81
2022/11/02 06:25:55;;;;;;;12.98;6.40;;;3.70;93.90;;;;;;4996536;28;20041;-81
2022/11/02 06:28:22;;;;;;;9.93;5.68;;;3.70;93.80;;;;;;5011273;28;20128;-82
2022/11/02 06:30:48;;;;;;;11.63;5.77;;;3.70;93.60;;;;;;5003291;28;20046;-81
2022/11/02 06:33:15;;;;;;;10.05;6.32;;;3.70;93.60;;;;;;5004878;28;20018;-83
2022/11/02 06:35:47;;;;;;;10.73;5.90;;;3.70;93.60;;;;;;4998937;28;20033;-80
2022/11/02 06:38:14;;;;;;;14.68;6.22;;;3.70;93.70;;;;;;5001865;28;20479;-81
2022/11/02 06:40:40;;;;;;;11.80;5.90;;;3.80;93.80;;;;;;4999202;28;20029;-83
2022/11/02 06:43:06;;;;;;;13.32;6.10;;;3.80;93.80;;;;;;5004251;28;20025;-84
2022/11/02 06:45:31;;;;;;;15.85;6.85;;;3.90;93.70;;;;;;5008101;28;20029;-82
2022/11/02 06:47:57;;;;;;;14.10;6.55;;;4.00;93.60;;;;;;4999449;28;20037;-84
2022/11/02 06:50:23;;;;;;;11.70;5.97;;;4.00;93.30;;;;;;5007934;28;20039;-84
2022/11/02 06:52:50;;;;;;;16.67;7.95;;;3.90;93.30;;;;;;5008568;28;20061;-81
2022/11/02 06:55:17;;;;;;;15.02;8.10;;;4.00;93.50;;;;;;5005963;28;20045;-84
2022/11/02 06:57:44;;;;;;;14.75;8.50;;;4.10;93.30;;;;;;5013567;28;20022;-84
2022/11/02 07:00:12;;;;;;;15.00;8.35;;;4.10;93.10;;;;;;5017421;28;20052;-83
2022/11/02 07:02:41;;;;;;;10.80;7.60;;;4.10;93.20;;;;;;5007094;28;20025;-82
2022/11/02 07:05:08;;;;;;;13.43;6.95;;;4.10;93.20;;;;;;5012670;28;20207;-82
2022/11/02 07:07:34;;;;;;;11.93;7.70;;;4.10;93.00;;;;;;4998879;28;20022;-84
2022/11/02 07:09:59;;;;;;;11.52;6.75;;;4.10;93.20;;;;;;5010115;28;20057;-82
2022/11/02 07:12:25;;;;;;;16.75;8.40;;;4.10;93.10;;;;;;4997620;28;20035;-84
2022/11/02 07:14:51;;;;;;;14.35;8.15;;;4.00;93.20;;;;;;4996840;28;20066;-83
2022/11/02 07:17:17;;;;;;;14.57;7.95;;;4.00;93.60;;;;;;5021100;28;20364;-83
2022/11/02 07:19:43;;;;;;;16.98;8.88;;;4.00;93.40;;;;;;5018167;28;20026;-80
2022/11/02 07:22:09;;;;;;;16.05;11.40;;;4.00;93.30;;;;;;5022541;28;20506;-82
2022/11/02 07:24:35;;;;;;;19.75;10.68;;;4.00;93.40;;;;;;5011900;28;20041;-79
2022/11/02 07:27:01;;;;;;;20.20;10.55;;;4.00;93.30;;;;;;5004685;28;20018;-81
2022/11/02 07:29:30;;;;;;;19.15;12.18;;;4.00;93.40;;;;;;5013278;28;20017;-81
2022/11/02 07:31:59;;;;;;;21.25;10.88;;;4.00;93.50;;;;;;5031949;28;20392;-83
2022/11/02 07:34:25;;;;;;;16.10;10.48;;;3.90;93.70;;;;;;5025251;28;20026;-82
2022/11/02 07:36:51;;;;;;;23.95;11.15;;;3.90;93.70;;;;;;5014085;28;20087;-81
2022/11/02 07:39:17;;;;;;;21.35;11.80;;;4.00;93.80;;;;;;5010266;28;20058;-82
2022/11/02 07:41:43;;;;;;;16.88;10.40;;;4.10;93.70;;;;;;5008225;28;20078;-83
2022/11/02 07:44:09;;;;;;;18.92;11.35;;;4.20;93.60;;;;;;5000569;28;20065;-82
2022/11/02 07:46:35;;;;;;;22.23;11.82;;;4.20;93.40;;;;;;5009408;28;20030;-83
2022/11/02 07:49:01;;;;;;;22.88;12.70;;;4.20;93.40;;;;;;5010375;28;20105;-83
2022/11/02 07:51:27;;;;;;;23.13;11.82;;;4.20;93.30;;;;;;5018019;28;20033;-84
2022/11/02 07:53:52;;;;;;;16.23;11.13;;;4.30;93.40;;;;;;5007708;28;20029;-84
2022/11/02 07:56:18;;;;;;;17.63;12.50;;;4.30;93.20;;;;;;5002003;28;20022;-82
2022/11/02 07:58:45;;;;;;;19.02;11.98;;;4.30;93.20;;;;;;5013543;28;20026;-85
2022/11/02 08:01:10;;;;;;;19.38;11.02;;;4.40;93.30;;;;;;5008418;28;20030;-82
2022/11/02 08:03:36;;;;;;;24.73;14.50;;;4.30;93.10;;;;;;5006840;28;20018;-84
2022/11/02 08:06:02;;;;;;;26.23;14.35;;;4.30;93.10;;;;;;4996548;28;20034;-84
2022/11/02 08:08:28;;;;;;;26.13;13.65;;;4.10;93.20;;;;;;5003867;28;20521;-85
2022/11/02 08:10:54;;;;;;;21.63;13.57;;;4.10;93.40;;;;;;5003465;28;20491;-86
2022/11/02 08:13:24;;;;;;;28.50;13.90;;;4.10;93.40;;;;;;5020284;28;20037;-87
2022/11/02 08:15:52;;;;;;;23.70;14.27;;;4.30;93.40;;;;;;5005675;28;20026;-84
2022/11/02 08:18:24;;;;;;;20.58;13.52;;;4.30;93.30;;;;;;5011445;28;20053;-82
2022/11/02 08:21:17;;;;;;;30.95;14.50;;;4.40;93.20;;;;;;5013845;28;20022;-82
2022/11/02 08:23:42;;;;;;;21.20;13.60;;;4.30;93.10;;;;;;5011101;28;20491;-81
2022/11/02 08:26:08;;;;;;;21.08;14.13;;;4.20;93.10;;;;;;5014722;28;20105;-81
2022/11/02 08:28:35;;;;;;;21.73;13.93;;;4.20;93.30;;;;;;5011401;28;20105;-82
2022/11/02 08:31:01;;;;;;;20.90;14.38;;;4.30;93.40;;;;;;5015487;28;20025;-82
2022/11/02 08:33:27;;;;;;;36.72;19.27;;;4.30;93.20;;;;;;5015213;28;20510;-82
2022/11/02 08:35:53;;;;;;;26.77;15.13;;;4.40;93.20;;;;;;5007799;28;20050;-84
2022/11/02 08:38:22;;;;;;;23.50;14.10;;;4.40;93.10;;;;;;5018840;28;20644;-81
2022/11/02 08:40:48;;;;;;;26.33;14.55;;;4.50;92.90;;;;;;4998941;28;20054;-82
2022/11/02 08:43:14;;;;;;;30.40;13.60;;;4.40;92.80;;;;;;5016032;28;20089;-83
2022/11/02 08:45:42;;;;;;;19.33;12.95;;;4.30;92.90;;;;;;5028403;28;20105;-85
2022/11/02 08:48:08;;;;;;;21.77;15.10;;;4.30;92.90;;;;;;5011865;28;20022;-84
2022/11/02 08:50:34;;;;;;;26.65;13.73;;;4.30;92.90;;;;;;5012723;28;20141;-83
2022/11/02 08:53:00;;;;;;;20.98;12.60;;;4.30;93.10;;;;;;5021888;28;20021;-83
2022/11/02 08:55:26;;;;;;;22.20;13.15;;;4.30;92.90;;;;;;5012441;28;20030;-81
2022/11/02 08:57:55;;;;;;;21.42;12.80;;;4.30;92.70;;;;;;5019133;28;20022;-83
2022/11/02 09:00:23;;;;;;;20.33;11.80;;;4.30;92.80;;;;;;5003793;28;20054;-83
2022/11/02 09:03:07;;;;;;;23.15;12.48;;;4.20;92.80;;;;;;5019933;28;20049;-82
2022/11/02 09:05:37;;;;;;;21.73;13.15;;;4.30;93.00;;;;;;5021804;28;20023;-84
2022/11/02 09:08:06;;;;;;;23.13;15.05;;;4.40;92.90;;;;;;5022535;28;20026;-84
2022/11/02 09:10:34;;;;;;;26.17;15.90;;;4.50;92.70;;;;;;5025459;28;20080;-84
2022/11/02 09:13:02;;;;;;;25.55;14.63;;;4.60;92.50;;;;;;5022122;28;20022;-84
2022/11/02 09:15:28;;;;;;;27.02;15.27;;;4.70;92.40;;;;;;5022483;28;20483;-81
2022/11/02 09:17:54;;;;;;;23.03;14.57;;;4.80;92.20;;;;;;5011361;28;20578;-85
2022/11/02 09:20:21;;;;;;;20.75;13.00;;;4.90;92.10;;;;;;5008591;28;20034;-84
2022/11/02 09:22:47;;;;;;;25.42;14.20;;;5.00;91.90;;;;;;5018418;28;20019;-84
2022/11/02 09:25:14;;;;;;;23.35;13.77;;;5.00;91.40;;;;;;5018106;28;20030;-84
2022/11/02 09:27:41;;;;;;;25.13;16.05;;;4.90;91.50;;;;;;5019585;28;20022;-81
2022/11/02 09:30:08;;;;;;;24.83;16.10;;;4.70;91.70;;;;;;5013220;28;20037;-83
2022/11/02 09:32:34;;;;;;;20.80;15.82;;;4.60;92.00;;;;;;5002017;28;20043;-82
2022/11/02 09:35:05;;;;;;;25.42;17.08;;;4.60;92.10;;;;;;5014970;28;20042;-81
2022/11/02 09:37:31;;;;;;;23.92;17.38;;;4.70;91.90;;;;;;5004145;28;20018;-81
2022/11/02 09:39:57;;;;;;;26.95;16.77;;;4.80;91.60;;;;;;5019980;28;20033;-82
2022/11/02 09:42:55;;;;;;;25.00;16.90;;;4.70;91.80;;;;;;5011264;28;20026;-80
2022/11/02 09:45:21;;;;;;;24.05;16.13;;;4.80;91.90;;;;;;5006370;28;20039;-83
2022/11/02 09:47:53;;;;;;;27.35;17.95;;;4.80;91.70;;;;;;5015638;28;20566;-82
2022/11/02 09:50:26;;;;;;;28.30;16.23;;;4.80;91.70;;;;;;5011954;28;20448;-81
2022/11/02 09:53:03;;;;;;;22.58;16.73;;;4.90;91.40;;;;;;5013780;28;20030;-83
2022/11/02 09:55:36;;;;;;;21.88;14.95;;;4.90;91.30;;;;;;5010638;28;20034;-83
2022/11/02 09:58:10;;;;;;;24.70;16.98;;;4.80;91.30;;;;;;5011389;28;20061;-83
2022/11/02 10:00:40;;;;;;;25.08;16.85;;;4.80;91.30;;;;;;4998066;28;20030;-84
2022/11/02 10:03:29;;;;;;;30.30;17.88;;;4.80;91.20;;;;;;4999682;28;20033;-86
2022/11/02 10:06:05;;;;;;;23.80;15.50;;;4.70;91.30;;;;;;5005204;28;20388;-88
2022/11/02 10:09:09;;;;;;;19.48;12.90;;;4.60;91.40;;;;;;4999398;28;20498;-85
2022/11/02 10:11:50;;;;;;;25.80;14.05;;;4.60;91.30;;;;;;5013523;28;20042;-84
2022/11/02 10:14:34;;;;;;;20.98;12.15;;;4.40;91.30;;;;;;5012159;28;20109;-82
2022/11/02 10:17:24;;;;;;;18.13;11.98;;;4.50;91.60;;;;;;5025613;28;20014;-82
2022/11/02 10:19:55;;;;;;;11.98;8.80;;;4.60;91.50;;;;;;5012517;28;20032;-82
2022/11/02 10:22:26;;;;;;;14.05;8.73;;;4.60;91.20;;;;;;5013028;28;20068;-80
2022/11/02 10:24:55;;;;;;;14.70;9.18;;;4.60;91.00;;;;;;5013256;28;20022;-82
2022/11/02 10:27:28;;;;;;;15.38;10.40;;;4.60;90.80;;;;;;5018265;28;20060;-83
2022/11/02 10:30:20;;;;;;;13.52;8.88;;;4.60;90.80;;;;;;5017761;28;20021;-81
2022/11/02 10:32:52;;;;;;;18.92;10.48;;;4.60;90.70;;;;;;5016212;28;20033;-83
2022/11/02 10:35:23;;;;;;;13.57;10.00;;;4.60;90.70;;;;;;5012199;28;20120;-81
2022/11/02 10:37:59;;;;;;;14.20;11.68;;;4.50;90.70;;;;;;5012505;28;20022;-83
2022/11/02 10:40:52;;;;;;;15.93;10.63;;;4.50;90.70;;;;;;5012511;28;20313;-83
2022/11/02 10:43:39;;;;;;;14.48;10.43;;;4.60;90.80;;;;;;5014313;28;20048;-83
2022/11/02 10:46:26;;;;;;;17.52;10.38;;;4.70;90.70;;;;;;5012482;28;20045;-80
2022/11/02 10:49:19;;;;;;;16.30;10.85;;;4.60;90.60;;;;;;5012026;28;20503;-81
2022/11/02 10:51:45;;;;;;;19.63;8.48;;;4.60;90.80;;;;;;5010955;28;20037;-86
2022/11/02 10:54:13;;;;;;;12.50;8.57;;;4.60;90.70;;;;;;5013399;28;20030;-86
2022/11/02 10:56:41;;;;;;;18.30;7.80;;;4.70;90.50;;;;;;5011442;28;20185;-85
2022/11/02 10:59:22;;;;;;;;;;;4.70;90.50;;;;;;5012784;28;20018;-84
2022/11/02 11:02:01;;;;;;;17.42;10.60;;;4.60;90.50;;;;;;5009783;28;19991;-82
2022/11/02 11:04:29;;;;;;;21.35;10.25;;;4.60;90.40;;;;;;5011589;28;20032;-85
2022/11/02 11:06:56;;;;;;;17.73;10.13;;;4.60;90.50;;;;;;5005693;28;20496;-83
2022/11/02 11:09:24;;;;;;;13.85;8.93;;;4.60;90.40;;;;;;5012636;28;20105;-82
2022/11/02 11:12:04;;;;;;;;;;;4.60;90.50;;;;;;5015680;28;20028;-84
2022/11/02 11:14:47;;;;;;;14.95;9.30;;;4.60;90.50;;;;;;5013976;28;19939;-83
2022/11/02 11:17:40;;;;;;;16.52;9.82;;;4.60;90.60;;;;;;5014217;28;20030;-80
2022/11/02 11:20:27;;;;;;;21.30;10.70;;;4.70;90.50;;;;;;5010703;28;20495;-80
2022/11/02 11:23:14;;;;;;;;;;;4.60;90.30;;;;;;5014912;28;20080;-80
2022/11/02 11:25:41;;;;;;;20.95;8.75;;;4.60;90.10;;;;;;5006414;28;19909;-82
2022/11/02 11:28:31;;;;;;;18.63;10.07;;;4.50;89.00;;;;;;5028909;28;20101;-82
2022/11/02 11:31:05;;;;;;;21.55;12.07;;;4.50;89.50;;;;;;5026962;28;20026;-87
2022/11/02 11:33:41;;;;;;;16.52;8.88;;;4.50;89.10;;;;;;5015004;28;20026;-85
2022/11/02 11:36:09;;;;;;;13.05;8.40;;;4.50;89.00;;;;;;5012534;28;20026;-85
2022/11/02 11:38:35;;;;;;;15.05;8.55;;;4.50;88.90;;;;;;5013542;28;20026;-84
2022/11/02 11:41:02;;;;;;;17.00;8.93;;;4.50;88.60;;;;;;5016338;28;20022;-84
2022/11/02 11:43:33;;;;;;;13.88;9.55;;;4.40;88.70;;;;;;5016150;28;20101;-84
2022/11/02 11:46:05;;;;;;;17.67;9.13;;;4.50;88.30;;;;;;5017192;28;20029;-85
2022/11/02 11:48:40;;;;;;;14.40;9.25;;;4.50;88.20;;;;;;5022897;28;20026;-89
2022/11/02 11:51:36;;;;;;;16.85;9.20;;;4.50;88.10;;;;;;5026492;28;20050;-85
2022/11/02 11:54:23;;;;;;;14.25;8.20;;;4.50;87.80;;;;;;5009719;28;20030;-88
2022/11/02 11:56:51;;;;;;;14.90;8.38;;;4.50;87.70;;;;;;5015952;28;20391;-86
2022/11/02 11:59:40;;;;;;;15.02;8.52;;;4.50;87.70;;;;;;5026435;28;20026;-86
2022/11/02 12:02:23;;;;;;;13.65;7.93;;;4.50;87.10;;;;;;5018801;28;20124;-84
2022/11/02 12:04:49;;;;;;;13.48;8.43;;;4.30;87.30;;;;;;5016764;28;20060;-86
2022/11/02 12:07:27;;;;;;;12.48;8.07;;;4.30;87.60;;;;;;5008390;28;20030;-86
2022/11/02 12:10:36;;;;;;;15.35;8.50;;;4.30;87.50;;;;;;5015357;28;20018;-87
2022/11/02 12:13:15;;;;;;;18.67;10.75;;;4.20;87.70;;;;;;5014425;28;20476;-86
2022/11/02 12:15:44;;;;;;;15.02;8.90;;;4.10;87.60;;;;;;5028446;28;20054;-88
2022/11/02 12:18:39;;;;;;;19.05;9.02;;;4.10;87.50;;;;;;5022431;28;20029;-84
2022/11/02 12:21:18;;;;;;;16.42;9.52;;;3.90;87.80;;;;;;5029124;28;20526;-86
2022/11/02 12:24:15;;;;;;;17.95;9.18;;;3.80;88.00;;;;;;5003453;28;20052;-83
2022/11/02 12:26:49;;;;;;;18.30;9.40;;;3.70;88.50;;;;;;5013051;28;20034;-82
2022/11/02 12:29:56;;;;;;;17.38;9.50;;;3.50;89.00;;;;;;5011659;28;20022;-86
2022/11/02 12:32:50;;;;;;;14.55;9.40;;;3.60;89.50;;;;;;5002946;28;20026;-85
2022/11/02 12:35:40;;;;;;;15.73;8.85;;;3.50;89.10;;;;;;4993191;28;20443;-84
2022/11/02 12:38:34;;;;;;;13.80;8.40;;;3.40;89.50;;;;;;4993591;28;20048;-85
2022/11/02 12:41:17;;;;;;;15.20;8.68;;;3.40;89.60;;;;;;4990149;28;20081;-85
2022/11/02 12:43:46;;;;;;;15.75;8.95;;;3.30;90.00;;;;;;4991036;28;20109;-85
2022/11/02 12:46:20;;;;;;;19.92;10.27;;;3.20;90.00;;;;;;4993623;28;20040;-86
2022/11/02 12:48:58;;;;;;;18.85;9.77;;;3.20;90.10;;;;;;4993007;28;20096;-87
2022/11/02 12:51:39;;;;;;;17.98;10.05;;;3.20;90.20;;;;;;4990027;28;20034;-87
2022/11/02 12:54:18;;;;;;;16.75;9.73;;;3.20;90.10;;;;;;4987740;28;20086;-86
2022/11/02 12:56:52;;;;;;;22.67;9.98;;;3.20;90.20;;;;;;4993115;28;20908;-86
2022/11/02 12:59:33;;;;;;;19.77;10.63;;;3.20;90.20;;;;;;4996605;28;20043;-86
2022/11/02 13:02:17;;;;;;;20.65;9.55;;;3.10;90.30;;;;;;4992332;28;20030;-86
2022/11/02 13:04:48;;;;;;;17.27;11.25;;;3.10;90.40;;;;;;4990914;28;20054;-85
2022/11/02 13:07:19;;;;;;;19.83;11.48;;;3.00;90.50;;;;;;4983666;28;20073;-87
2022/11/02 13:09:51;;;;;;;23.38;11.48;;;3.00;90.60;;;;;;4979637;28;20184;-87
2022/11/02 13:12:20;;;;;;;18.30;9.90;;;3.00;90.60;;;;;;5005201;28;20042;-86
2022/11/02 13:14:49;;;;;;;21.67;9.13;;;3.00;90.60;;;;;;5018881;28;20053;-88
2022/11/02 13:17:45;;;;;;;22.60;11.02;;;3.00;90.70;;;;;;5008490;28;20080;-84
2022/11/02 13:20:26;;;;;;;13.97;8.73;;;3.00;90.70;;;;;;5019845;28;20023;-83
2022/11/02 13:23:18;;;;;;;16.10;9.45;;;3.00;90.70;;;;;;5003517;28;20017;-81
2022/11/02 13:25:50;;;;;;;16.15;9.85;;;2.90;90.80;;;;;;5024662;28;20021;-81
2022/11/02 13:28:38;;;;;;;20.90;10.95;;;2.90;90.80;;;;;;5023204;28;20117;-80
2022/11/02 13:31:08;;;;;;;18.73;9.88;;;2.90;90.90;;;;;;5004718;28;20045;-84